sensor_id;sensor_type;location;lat;lon;timestamp;temperature;humidity
7958;DHT22;4024;52.172;5.378;2023-05-07T00:01:01;17.80;99.90
7958;DHT22;4024;52.172;5.378;2023-05-07T00:03:27;17.80;99.90
7958;DHT22;4024;52.172;5.378;2023-05-07T00:05:54;17.80;99.90
7958;DHT22;4024;52.172;5.378;2023-05-07T00:08:20;17.80;99.90
7958;DHT22;4024;52.172;5.378;2023-05-07T00:10:46;17.80;99.90
7958;DHT22;4024;52.172;5.378;2023-05-07T00:13:12;17.80;99.90
7958;DHT22;4024;52.172;5.378;2023-05-07T00:15:37;17.70;99.90
7958;DHT22;4024;52.172;5.378;2023-05-07T00:18:03;17.70;99.90
7958;DHT22;4024;52.172;5.378;2023-05-07T00:20:28;17.70;99.90
7958;DHT22;4024;52.172;5.378;2023-05-07T00:22:54;17.70;99.90
7958;DHT22;4024;52.172;5.378;2023-05-07T00:25:20;17.70;99.90
7958;DHT22;4024;52.172;5.378;2023-05-07T00:27:46;17.70;99.90
7958;DHT22;4024;52.172;5.378;2023-05-07T00:30:12;17.70;99.90
7958;DHT22;4024;52.172;5.378;2023-05-07T00:32:38;17.70;99.90
7958;DHT22;4024;52.172;5.378;2023-05-07T00:35:05;17.60;99.90
7958;DHT22;4024;52.172;5.378;2023-05-07T00:37:30;17.60;99.90
7958;DHT22;4024;52.172;5.378;2023-05-07T00:39:56;17.60;99.90
7958;DHT22;4024;52.172;5.378;2023-05-07T00:42:22;17.60;99.90
7958;DHT22;4024;52.172;5.378;2023-05-07T00:44:48;17.60;99.90
7958;DHT22;4024;52.172;5.378;2023-05-07T00:47:14;17.60;99.90
7958;DHT22;4024;52.172;5.378;2023-05-07T00:49:44;17.50;99.90
7958;DHT22;4024;52.172;5.378;2023-05-07T00:52:13;17.50;99.90
7958;DHT22;4024;52.172;5.378;2023-05-07T00:54:40;17.50;99.90
7958;DHT22;4024;52.172;5.378;2023-05-07T00:57:06;17.50;99.90
7958;DHT22;4024;52.172;5.378;2023-05-07T00:59:32;17.40;99.90
7958;DHT22;4024;52.172;5.378;2023-05-07T01:01:58;17.40;99.90
7958;DHT22;4024;52.172;5.378;2023-05-07T01:04:25;17.50;99.90
7958;DHT22;4024;52.172;5.378;2023-05-07T01:06:52;17.40;99.90
7958;DHT22;4024;52.172;5.378;2023-05-07T01:09:19;17.40;99.90
7958;DHT22;4024;52.172;5.378;2023-05-07T01:11:47;17.40;99.90
7958;DHT22;4024;52.172;5.378;2023-05-07T01:14:13;17.40;99.90
7958;DHT22;4024;52.172;5.378;2023-05-07T01:16:39;17.40;99.90
7958;DHT22;4024;52.172;5.378;2023-05-07T01:19:08;17.40;99.90
7958;DHT22;4024;52.172;5.378;2023-05-07T01:21:37;17.40;99.90
7958;DHT22;4024;52.172;5.378;2023-05-07T01:24:04;17.40;99.90
7958;DHT22;4024;52.172;5.378;2023-05-07T01:26:30;17.40;99.90
7958;DHT22;4024;52.172;5.378;2023-05-07T01:28:56;17.40;99.90
7958;DHT22;4024;52.172;5.378;2023-05-07T01:31:23;17.40;99.90
7958;DHT22;4024;52.172;5.378;2023-05-07T01:33:50;17.40;99.90
7958;DHT22;4024;52.172;5.378;2023-05-07T01:36:18;17.30;99.90
7958;DHT22;4024;52.172;5.378;2023-05-07T01:38:44;17.40;99.90
7958;DHT22;4024;52.172;5.378;2023-05-07T01:41:12;17.40;99.90
7958;DHT22;4024;52.172;5.378;2023-05-07T01:43:38;17.40;99.90
7958;DHT22;4024;52.172;5.378;2023-05-07T01:46:05;17.40;99.90
7958;DHT22;4024;52.172;5.378;2023-05-07T01:48:32;17.40;99.90
7958;DHT22;4024;52.172;5.378;2023-05-07T01:50:58;17.50;99.90
7958;DHT22;4024;52.172;5.378;2023-05-07T01:53:27;17.40;99.90
7958;DHT22;4024;52.172;5.378;2023-05-07T01:55:54;17.50;99.90
7958;DHT22;4024;52.172;5.378;2023-05-07T01:58:20;17.40;99.90
7958;DHT22;4024;52.172;5.378;2023-05-07T02:00:46;17.60;99.90
7958;DHT22;4024;52.172;5.378;2023-05-07T02:03:12;17.50;99.90
7958;DHT22;4024;52.172;5.378;2023-05-07T02:05:37;17.50;99.90
7958;DHT22;4024;52.172;5.378;2023-05-07T02:08:03;17.50;99.90
7958;DHT22;4024;52.172;5.378;2023-05-07T02:10:29;17.50;99.90
7958;DHT22;4024;52.172;5.378;2023-05-07T02:12:55;17.50;99.90
7958;DHT22;4024;52.172;5.378;2023-05-07T02:15:20;17.50;99.90
7958;DHT22;4024;52.172;5.378;2023-05-07T02:18:18;17.50;99.90
7958;DHT22;4024;52.172;5.378;2023-05-07T02:20:43;17.40;99.90
7958;DHT22;4024;52.172;5.378;2023-05-07T02:23:09;17.50;99.90
7958;DHT22;4024;52.172;5.378;2023-05-07T02:25:35;17.50;99.90
7958;DHT22;4024;52.172;5.378;2023-05-07T02:28:00;17.50;99.90
7958;DHT22;4024;52.172;5.378;2023-05-07T02:30:26;17.50;99.90
7958;DHT22;4024;52.172;5.378;2023-05-07T02:32:52;17.50;99.90
7958;DHT22;4024;52.172;5.378;2023-05-07T02:35:17;17.50;99.90
7958;DHT22;4024;52.172;5.378;2023-05-07T02:37:43;17.50;99.90
7958;DHT22;4024;52.172;5.378;2023-05-07T02:40:09;17.50;99.90
7958;DHT22;4024;52.172;5.378;2023-05-07T02:42:35;17.40;99.90
7958;DHT22;4024;52.172;5.378;2023-05-07T02:45:01;17.50;99.90
7958;DHT22;4024;52.172;5.378;2023-05-07T02:47:26;17.50;99.90
7958;DHT22;4024;52.172;5.378;2023-05-07T02:49:56;17.50;99.90
7958;DHT22;4024;52.172;5.378;2023-05-07T02:52:22;17.40;99.90
7958;DHT22;4024;52.172;5.378;2023-05-07T02:54:48;17.40;99.90
7958;DHT22;4024;52.172;5.378;2023-05-07T02:57:14;17.40;99.90
7958;DHT22;4024;52.172;5.378;2023-05-07T02:59:40;17.40;99.90
7958;DHT22;4024;52.172;5.378;2023-05-07T03:02:05;17.40;99.90
7958;DHT22;4024;52.172;5.378;2023-05-07T03:04:31;17.40;99.90
7958;DHT22;4024;52.172;5.378;2023-05-07T03:06:56;17.40;99.90
7958;DHT22;4024;52.172;5.378;2023-05-07T03:09:22;17.40;99.90
7958;DHT22;4024;52.172;5.378;2023-05-07T03:11:48;17.40;99.90
7958;DHT22;4024;52.172;5.378;2023-05-07T03:14:13;17.40;99.90
7958;DHT22;4024;52.172;5.378;2023-05-07T03:16:39;17.40;99.90
7958;DHT22;4024;52.172;5.378;2023-05-07T03:19:06;17.40;99.90
7958;DHT22;4024;52.172;5.378;2023-05-07T03:21:32;17.40;99.90
7958;DHT22;4024;52.172;5.378;2023-05-07T03:23:59;17.40;99.90
7958;DHT22;4024;52.172;5.378;2023-05-07T03:26:26;17.40;99.90
7958;DHT22;4024;52.172;5.378;2023-05-07T03:28:52;17.30;99.90
7958;DHT22;4024;52.172;5.378;2023-05-07T03:31:17;17.30;99.90
7958;DHT22;4024;52.172;5.378;2023-05-07T03:33:54;17.30;99.90
7958;DHT22;4024;52.172;5.378;2023-05-07T03:36:20;17.30;99.90
7958;DHT22;4024;52.172;5.378;2023-05-07T03:38:47;17.30;99.90
7958;DHT22;4024;52.172;5.378;2023-05-07T03:41:13;17.30;99.90
7958;DHT22;4024;52.172;5.378;2023-05-07T03:43:38;17.40;99.90
7958;DHT22;4024;52.172;5.378;2023-05-07T03:46:04;17.30;99.90
7958;DHT22;4024;52.172;5.378;2023-05-07T03:48:30;17.30;99.90
7958;DHT22;4024;52.172;5.378;2023-05-07T03:50:57;17.30;99.90
7958;DHT22;4024;52.172;5.378;2023-05-07T03:53:22;17.30;99.90
7958;DHT22;4024;52.172;5.378;2023-05-07T03:55:48;17.30;99.90
7958;DHT22;4024;52.172;5.378;2023-05-07T03:58:13;17.30;99.90
7958;DHT22;4024;52.172;5.378;2023-05-07T04:00:39;17.30;99.90
7958;DHT22;4024;52.172;5.378;2023-05-07T04:03:06;17.20;99.90
7958;DHT22;4024;52.172;5.378;2023-05-07T04:05:31;17.30;99.90
7958;DHT22;4024;52.172;5.378;2023-05-07T04:08:00;17.20;99.90
7958;DHT22;4024;52.172;5.378;2023-05-07T04:10:26;17.30;99.90
7958;DHT22;4024;52.172;5.378;2023-05-07T04:12:53;17.30;99.90
7958;DHT22;4024;52.172;5.378;2023-05-07T04:15:19;17.30;99.90
7958;DHT22;4024;52.172;5.378;2023-05-07T04:17:45;17.30;99.90
7958;DHT22;4024;52.172;5.378;2023-05-07T04:20:14;17.20;99.90
7958;DHT22;4024;52.172;5.378;2023-05-07T04:22:40;17.20;99.90
7958;DHT22;4024;52.172;5.378;2023-05-07T04:25:06;17.30;99.90
7958;DHT22;4024;52.172;5.378;2023-05-07T04:27:33;17.30;99.90
7958;DHT22;4024;52.172;5.378;2023-05-07T04:30:00;17.30;99.90
7958;DHT22;4024;52.172;5.378;2023-05-07T04:32:26;17.20;99.90
7958;DHT22;4024;52.172;5.378;2023-05-07T04:34:52;17.30;99.90
7958;DHT22;4024;52.172;5.378;2023-05-07T04:37:17;17.30;99.90
7958;DHT22;4024;52.172;5.378;2023-05-07T04:39:43;17.20;99.90
7958;DHT22;4024;52.172;5.378;2023-05-07T04:42:09;17.30;99.90
7958;DHT22;4024;52.172;5.378;2023-05-07T04:44:35;17.30;99.90
7958;DHT22;4024;52.172;5.378;2023-05-07T04:47:02;17.20;99.90
7958;DHT22;4024;52.172;5.378;2023-05-07T04:49:28;17.40;99.90
7958;DHT22;4024;52.172;5.378;2023-05-07T04:51:53;17.30;99.90
7958;DHT22;4024;52.172;5.378;2023-05-07T04:54:19;17.40;99.90
7958;DHT22;4024;52.172;5.378;2023-05-07T04:56:45;17.30;99.90
7958;DHT22;4024;52.172;5.378;2023-05-07T04:59:11;17.30;99.90
7958;DHT22;4024;52.172;5.378;2023-05-07T05:01:37;17.30;99.90
7958;DHT22;4024;52.172;5.378;2023-05-07T05:04:03;17.30;99.90
7958;DHT22;4024;52.172;5.378;2023-05-07T05:06:29;17.30;99.90
7958;DHT22;4024;52.172;5.378;2023-05-07T05:08:54;17.30;99.90
7958;DHT22;4024;52.172;5.378;2023-05-07T05:11:21;17.30;99.90
7958;DHT22;4024;52.172;5.378;2023-05-07T05:13:46;17.40;99.90
7958;DHT22;4024;52.172;5.378;2023-05-07T05:16:14;17.30;99.90
7958;DHT22;4024;52.172;5.378;2023-05-07T05:18:40;17.30;99.90
7958;DHT22;4024;52.172;5.378;2023-05-07T05:21:06;17.30;99.90
7958;DHT22;4024;52.172;5.378;2023-05-07T05:23:32;17.30;99.90
7958;DHT22;4024;52.172;5.378;2023-05-07T05:25:57;17.40;99.90
7958;DHT22;4024;52.172;5.378;2023-05-07T05:28:23;17.30;99.90
7958;DHT22;4024;52.172;5.378;2023-05-07T05:30:49;17.30;99.90
7958;DHT22;4024;52.172;5.378;2023-05-07T05:33:15;17.30;99.90
7958;DHT22;4024;52.172;5.378;2023-05-07T05:35:41;17.30;99.90
7958;DHT22;4024;52.172;5.378;2023-05-07T05:38:07;17.30;99.90
7958;DHT22;4024;52.172;5.378;2023-05-07T05:40:34;17.30;99.90
7958;DHT22;4024;52.172;5.378;2023-05-07T05:43:00;17.30;99.90
7958;DHT22;4024;52.172;5.378;2023-05-07T05:45:25;17.20;99.90
7958;DHT22;4024;52.172;5.378;2023-05-07T05:47:51;17.30;99.90
7958;DHT22;4024;52.172;5.378;2023-05-07T05:50:26;17.30;99.90
7958;DHT22;4024;52.172;5.378;2023-05-07T05:52:51;17.30;99.90
7958;DHT22;4024;52.172;5.378;2023-05-07T05:55:17;17.40;99.90
7958;DHT22;4024;52.172;5.378;2023-05-07T05:57:42;17.30;99.90
7958;DHT22;4024;52.172;5.378;2023-05-07T06:00:09;17.40;99.90
7958;DHT22;4024;52.172;5.378;2023-05-07T06:02:34;17.40;99.90
7958;DHT22;4024;52.172;5.378;2023-05-07T06:05:00;17.40;99.90
7958;DHT22;4024;52.172;5.378;2023-05-07T06:07:26;17.50;99.90
7958;DHT22;4024;52.172;5.378;2023-05-07T06:09:51;17.40;99.90
7958;DHT22;4024;52.172;5.378;2023-05-07T06:12:17;17.40;99.90
7958;DHT22;4024;52.172;5.378;2023-05-07T06:14:43;17.40;99.90
7958;DHT22;4024;52.172;5.378;2023-05-07T06:17:09;17.40;99.90
7958;DHT22;4024;52.172;5.378;2023-05-07T06:19:35;17.40;99.90
7958;DHT22;4024;52.172;5.378;2023-05-07T06:22:01;17.50;99.90
7958;DHT22;4024;52.172;5.378;2023-05-07T06:24:28;17.40;99.90
7958;DHT22;4024;52.172;5.378;2023-05-07T06:26:55;17.30;99.90
7958;DHT22;4024;52.172;5.378;2023-05-07T06:29:20;17.40;99.90
7958;DHT22;4024;52.172;5.378;2023-05-07T06:31:46;17.40;99.90
7958;DHT22;4024;52.172;5.378;2023-05-07T06:34:12;17.40;99.90
7958;DHT22;4024;52.172;5.378;2023-05-07T06:36:40;17.30;99.90
7958;DHT22;4024;52.172;5.378;2023-05-07T06:39:06;17.40;99.90
7958;DHT22;4024;52.172;5.378;2023-05-07T06:41:31;17.40;99.90
7958;DHT22;4024;52.172;5.378;2023-05-07T06:43:57;17.40;99.90
7958;DHT22;4024;52.172;5.378;2023-05-07T06:46:23;17.40;99.90
7958;DHT22;4024;52.172;5.378;2023-05-07T06:48:48;17.40;99.90
7958;DHT22;4024;52.172;5.378;2023-05-07T06:51:16;17.40;99.90
7958;DHT22;4024;52.172;5.378;2023-05-07T06:53:42;17.40;99.90
7958;DHT22;4024;52.172;5.378;2023-05-07T06:56:07;17.40;99.90
7958;DHT22;4024;52.172;5.378;2023-05-07T06:58:33;17.50;99.90
7958;DHT22;4024;52.172;5.378;2023-05-07T07:00:58;17.50;99.90
7958;DHT22;4024;52.172;5.378;2023-05-07T07:03:24;17.60;99.90
7958;DHT22;4024;52.172;5.378;2023-05-07T07:05:53;17.60;99.90
7958;DHT22;4024;52.172;5.378;2023-05-07T07:08:19;17.60;99.90
7958;DHT22;4024;52.172;5.378;2023-05-07T07:10:46;17.70;99.90
7958;DHT22;4024;52.172;5.378;2023-05-07T07:13:13;17.70;99.90
7958;DHT22;4024;52.172;5.378;2023-05-07T07:15:38;17.80;99.90
7958;DHT22;4024;52.172;5.378;2023-05-07T07:18:04;17.70;99.90
7958;DHT22;4024;52.172;5.378;2023-05-07T07:20:30;17.80;99.90
7958;DHT22;4024;52.172;5.378;2023-05-07T07:22:55;17.90;99.90
7958;DHT22;4024;52.172;5.378;2023-05-07T07:25:21;17.90;99.90
7958;DHT22;4024;52.172;5.378;2023-05-07T07:27:46;18.00;99.90
7958;DHT22;4024;52.172;5.378;2023-05-07T07:30:12;18.00;99.90
7958;DHT22;4024;52.172;5.378;2023-05-07T07:32:38;18.20;99.90
7958;DHT22;4024;52.172;5.378;2023-05-07T07:35:04;18.30;99.90
7958;DHT22;4024;52.172;5.378;2023-05-07T07:37:30;18.40;99.90
7958;DHT22;4024;52.172;5.378;2023-05-07T07:39:55;18.50;99.90
7958;DHT22;4024;52.172;5.378;2023-05-07T07:42:21;18.60;99.90
7958;DHT22;4024;52.172;5.378;2023-05-07T07:44:47;18.70;99.90
7958;DHT22;4024;52.172;5.378;2023-05-07T07:47:13;18.80;99.90
7958;DHT22;4024;52.172;5.378;2023-05-07T07:49:39;18.90;99.90
7958;DHT22;4024;52.172;5.378;2023-05-07T07:52:05;19.00;99.90
7958;DHT22;4024;52.172;5.378;2023-05-07T07:54:30;19.10;99.90
7958;DHT22;4024;52.172;5.378;2023-05-07T07:56:56;19.20;99.90
7958;DHT22;4024;52.172;5.378;2023-05-07T07:59:22;19.20;99.90
7958;DHT22;4024;52.172;5.378;2023-05-07T08:01:47;19.40;99.90
7958;DHT22;4024;52.172;5.378;2023-05-07T08:04:15;19.40;99.90
7958;DHT22;4024;52.172;5.378;2023-05-07T08:06:41;19.60;99.90
7958;DHT22;4024;52.172;5.378;2023-05-07T08:09:07;19.60;99.90
7958;DHT22;4024;52.172;5.378;2023-05-07T08:11:33;19.60;99.90
7958;DHT22;4024;52.172;5.378;2023-05-07T08:13:59;19.70;99.90
7958;DHT22;4024;52.172;5.378;2023-05-07T08:16:25;19.70;99.90
7958;DHT22;4024;52.172;5.378;2023-05-07T08:18:51;19.70;99.90
7958;DHT22;4024;52.172;5.378;2023-05-07T08:21:17;19.80;99.90
7958;DHT22;4024;52.172;5.378;2023-05-07T08:23:42;19.80;99.90
7958;DHT22;4024;52.172;5.378;2023-05-07T08:26:08;19.80;99.90
7958;DHT22;4024;52.172;5.378;2023-05-07T08:28:34;19.80;99.90
7958;DHT22;4024;52.172;5.378;2023-05-07T08:31:00;19.80;99.90
7958;DHT22;4024;52.172;5.378;2023-05-07T08:33:26;19.80;99.90
7958;DHT22;4024;52.172;5.378;2023-05-07T08:35:53;19.90;99.90
7958;DHT22;4024;52.172;5.378;2023-05-07T08:38:18;19.90;99.90
7958;DHT22;4024;52.172;5.378;2023-05-07T08:40:44;19.80;99.90
7958;DHT22;4024;52.172;5.378;2023-05-07T08:43:13;19.80;99.90
7958;DHT22;4024;52.172;5.378;2023-05-07T08:45:40;19.70;99.90
7958;DHT22;4024;52.172;5.378;2023-05-07T08:48:15;19.60;99.90
7958;DHT22;4024;52.172;5.378;2023-05-07T08:50:41;19.60;99.90
7958;DHT22;4024;52.172;5.378;2023-05-07T08:53:07;19.50;99.90
7958;DHT22;4024;52.172;5.378;2023-05-07T08:55:32;19.50;99.90
7958;DHT22;4024;52.172;5.378;2023-05-07T08:57:59;19.40;99.90
7958;DHT22;4024;52.172;5.378;2023-05-07T09:00:25;19.40;99.90
7958;DHT22;4024;52.172;5.378;2023-05-07T09:02:53;19.40;99.90
7958;DHT22;4024;52.172;5.378;2023-05-07T09:05:19;19.40;99.90
7958;DHT22;4024;52.172;5.378;2023-05-07T09:07:45;19.30;99.90
7958;DHT22;4024;52.172;5.378;2023-05-07T09:10:12;19.40;99.90
7958;DHT22;4024;52.172;5.378;2023-05-07T09:12:39;19.30;99.90
7958;DHT22;4024;52.172;5.378;2023-05-07T09:15:05;19.40;99.90
7958;DHT22;4024;52.172;5.378;2023-05-07T09:17:31;19.40;99.90
7958;DHT22;4024;52.172;5.378;2023-05-07T09:20:01;19.40;99.90
7958;DHT22;4024;52.172;5.378;2023-05-07T09:22:27;19.40;99.90
7958;DHT22;4024;52.172;5.378;2023-05-07T09:24:52;19.50;99.90
7958;DHT22;4024;52.172;5.378;2023-05-07T09:27:18;19.60;99.90
7958;DHT22;4024;52.172;5.378;2023-05-07T09:29:44;19.60;99.90
7958;DHT22;4024;52.172;5.378;2023-05-07T09:32:10;19.60;99.90
7958;DHT22;4024;52.172;5.378;2023-05-07T09:34:36;19.70;99.90
7958;DHT22;4024;52.172;5.378;2023-05-07T09:37:03;19.70;99.90
7958;DHT22;4024;52.172;5.378;2023-05-07T09:39:45;19.80;99.90
7958;DHT22;4024;52.172;5.378;2023-05-07T09:42:13;19.80;99.90
7958;DHT22;4024;52.172;5.378;2023-05-07T09:44:40;19.90;99.90
7958;DHT22;4024;52.172;5.378;2023-05-07T09:47:07;19.90;99.90
7958;DHT22;4024;52.172;5.378;2023-05-07T09:49:36;20.00;99.90
7958;DHT22;4024;52.172;5.378;2023-05-07T09:52:04;20.00;99.90
7958;DHT22;4024;52.172;5.378;2023-05-07T09:54:35;20.00;99.90
7958;DHT22;4024;52.172;5.378;2023-05-07T09:57:04;20.00;99.90
7958;DHT22;4024;52.172;5.378;2023-05-07T09:59:32;20.10;99.90
7958;DHT22;4024;52.172;5.378;2023-05-07T10:01:59;20.10;99.90
7958;DHT22;4024;52.172;5.378;2023-05-07T10:04:28;20.20;99.90
7958;DHT22;4024;52.172;5.378;2023-05-07T10:06:54;20.20;99.90
7958;DHT22;4024;52.172;5.378;2023-05-07T10:09:22;20.30;99.90
7958;DHT22;4024;52.172;5.378;2023-05-07T10:11:51;20.30;99.90
7958;DHT22;4024;52.172;5.378;2023-05-07T10:14:20;20.40;99.90
7958;DHT22;4024;52.172;5.378;2023-05-07T10:16:47;20.50;99.90
7958;DHT22;4024;52.172;5.378;2023-05-07T10:19:13;20.50;99.90
7958;DHT22;4024;52.172;5.378;2023-05-07T10:21:44;20.60;99.90
7958;DHT22;4024;52.172;5.378;2023-05-07T10:24:19;20.70;99.90
7958;DHT22;4024;52.172;5.378;2023-05-07T10:26:49;20.70;99.90
7958;DHT22;4024;52.172;5.378;2023-05-07T10:29:37;20.80;99.90
7958;DHT22;4024;52.172;5.378;2023-05-07T10:32:13;20.80;99.90
7958;DHT22;4024;52.172;5.378;2023-05-07T10:34:43;20.80;99.90
7958;DHT22;4024;52.172;5.378;2023-05-07T10:37:11;20.90;99.90
7958;DHT22;4024;52.172;5.378;2023-05-07T10:39:37;20.90;99.90
7958;DHT22;4024;52.172;5.378;2023-05-07T10:42:13;21.00;99.90
7958;DHT22;4024;52.172;5.378;2023-05-07T10:44:39;21.00;99.90
7958;DHT22;4024;52.172;5.378;2023-05-07T10:47:08;21.10;99.90
7958;DHT22;4024;52.172;5.378;2023-05-07T10:52:16;21.20;99.90
7958;DHT22;4024;52.172;5.378;2023-05-07T10:54:42;21.20;99.90
7958;DHT22;4024;52.172;5.378;2023-05-07T10:59:57;21.40;99.90
7958;DHT22;4024;52.172;5.378;2023-05-07T11:02:22;21.50;99.90
7958;DHT22;4024;52.172;5.378;2023-05-07T11:05:20;21.50;99.90
7958;DHT22;4024;52.172;5.378;2023-05-07T11:07:55;21.60;99.90
7958;DHT22;4024;52.172;5.378;2023-05-07T11:10:21;21.70;99.90
7958;DHT22;4024;52.172;5.378;2023-05-07T11:12:51;21.70;99.90
7958;DHT22;4024;52.172;5.378;2023-05-07T11:15:34;21.80;99.90
7958;DHT22;4024;52.172;5.378;2023-05-07T11:18:01;21.80;99.90
7958;DHT22;4024;52.172;5.378;2023-05-07T11:26:06;22.00;99.90
7958;DHT22;4024;52.172;5.378;2023-05-07T11:28:37;22.00;99.90
7958;DHT22;4024;52.172;5.378;2023-05-07T11:31:03;22.10;99.90
7958;DHT22;4024;52.172;5.378;2023-05-07T11:33:30;22.10;99.90
7958;DHT22;4024;52.172;5.378;2023-05-07T11:35:56;22.10;99.90
7958;DHT22;4024;52.172;5.378;2023-05-07T11:38:22;22.20;99.90
7958;DHT22;4024;52.172;5.378;2023-05-07T11:40:54;22.20;99.90
7958;DHT22;4024;52.172;5.378;2023-05-07T11:43:20;22.30;99.90
7958;DHT22;4024;52.172;5.378;2023-05-07T11:45:47;22.40;99.90
7958;DHT22;4024;52.172;5.378;2023-05-07T11:48:15;22.40;99.90
7958;DHT22;4024;52.172;5.378;2023-05-07T11:51:10;22.50;99.90
7958;DHT22;4024;52.172;5.378;2023-05-07T11:53:39;22.50;99.90
7958;DHT22;4024;52.172;5.378;2023-05-07T11:56:13;22.60;99.90
7958;DHT22;4024;52.172;5.378;2023-05-07T11:58:40;22.60;99.90
7958;DHT22;4024;52.172;5.378;2023-05-07T12:01:08;22.70;99.90
7958;DHT22;4024;52.172;5.378;2023-05-07T12:03:35;22.70;99.90
7958;DHT22;4024;52.172;5.378;2023-05-07T12:06:05;22.80;99.90
7958;DHT22;4024;52.172;5.378;2023-05-07T12:08:30;22.80;99.90
7958;DHT22;4024;52.172;5.378;2023-05-07T12:10:56;22.90;99.90
7958;DHT22;4024;52.172;5.378;2023-05-07T12:13:24;23.00;99.90
7958;DHT22;4024;52.172;5.378;2023-05-07T12:15:54;23.00;99.90
7958;DHT22;4024;52.172;5.378;2023-05-07T12:18:20;23.10;99.90
7958;DHT22;4024;52.172;5.378;2023-05-07T12:20:47;23.10;99.90
7958;DHT22;4024;52.172;5.378;2023-05-07T12:23:13;23.10;99.90
7958;DHT22;4024;52.172;5.378;2023-05-07T12:25:39;23.20;99.90
7958;DHT22;4024;52.172;5.378;2023-05-07T12:28:07;23.20;99.90
7958;DHT22;4024;52.172;5.378;2023-05-07T12:30:37;23.30;99.90
7958;DHT22;4024;52.172;5.378;2023-05-07T12:33:03;23.30;99.90
7958;DHT22;4024;52.172;5.378;2023-05-07T12:35:30;23.40;99.90
7958;DHT22;4024;52.172;5.378;2023-05-07T12:37:57;23.40;99.90
7958;DHT22;4024;52.172;5.378;2023-05-07T12:40:35;23.50;99.90
7958;DHT22;4024;52.172;5.378;2023-05-07T12:43:00;23.50;99.90
7958;DHT22;4024;52.172;5.378;2023-05-07T12:45:26;23.60;99.90
7958;DHT22;4024;52.172;5.378;2023-05-07T12:47:52;23.60;99.90
7958;DHT22;4024;52.172;5.378;2023-05-07T12:50:17;23.60;99.90
7958;DHT22;4024;52.172;5.378;2023-05-07T12:52:48;23.70;99.90
7958;DHT22;4024;52.172;5.378;2023-05-07T12:55:14;23.70;99.90
7958;DHT22;4024;52.172;5.378;2023-05-07T12:57:48;23.70;99.90
7958;DHT22;4024;52.172;5.378;2023-05-07T13:00:14;23.70;99.90
7958;DHT22;4024;52.172;5.378;2023-05-07T13:02:41;23.70;99.90
7958;DHT22;4024;52.172;5.378;2023-05-07T13:05:08;23.70;99.90
7958;DHT22;4024;52.172;5.378;2023-05-07T13:07:34;23.70;99.90
7958;DHT22;4024;52.172;5.378;2023-05-07T13:10:00;23.70;99.90
7958;DHT22;4024;52.172;5.378;2023-05-07T13:12:25;23.80;99.90
7958;DHT22;4024;52.172;5.378;2023-05-07T13:14:51;23.80;99.90
7958;DHT22;4024;52.172;5.378;2023-05-07T13:17:16;23.80;99.90
7958;DHT22;4024;52.172;5.378;2023-05-07T13:19:44;23.90;99.90
7958;DHT22;4024;52.172;5.378;2023-05-07T13:22:09;23.90;99.90
7958;DHT22;4024;52.172;5.378;2023-05-07T13:24:35;23.90;99.90
7958;DHT22;4024;52.172;5.378;2023-05-07T13:27:00;24.00;99.90
7958;DHT22;4024;52.172;5.378;2023-05-07T13:29:26;24.10;99.90
7958;DHT22;4024;52.172;5.378;2023-05-07T13:31:58;24.10;99.90
7958;DHT22;4024;52.172;5.378;2023-05-07T13:34:24;24.10;99.90
7958;DHT22;4024;52.172;5.378;2023-05-07T13:36:50;24.20;99.90
7958;DHT22;4024;52.172;5.378;2023-05-07T13:39:17;24.20;99.90
7958;DHT22;4024;52.172;5.378;2023-05-07T13:41:42;24.30;99.90
7958;DHT22;4024;52.172;5.378;2023-05-07T13:44:08;24.30;99.90
7958;DHT22;4024;52.172;5.378;2023-05-07T13:46:33;24.40;99.90
7958;DHT22;4024;52.172;5.378;2023-05-07T13:48:59;24.40;99.90
7958;DHT22;4024;52.172;5.378;2023-05-07T13:51:25;24.40;99.90
7958;DHT22;4024;52.172;5.378;2023-05-07T13:53:51;24.40;99.90
7958;DHT22;4024;52.172;5.378;2023-05-07T13:56:18;24.40;99.90
7958;DHT22;4024;52.172;5.378;2023-05-07T13:58:43;24.40;99.90
7958;DHT22;4024;52.172;5.378;2023-05-07T14:01:09;24.40;99.90
7958;DHT22;4024;52.172;5.378;2023-05-07T14:03:34;24.30;99.90
7958;DHT22;4024;52.172;5.378;2023-05-07T14:06:03;24.30;99.90
7958;DHT22;4024;52.172;5.378;2023-05-07T14:08:29;24.30;99.90
7958;DHT22;4024;52.172;5.378;2023-05-07T14:10:55;24.30;99.90
7958;DHT22;4024;52.172;5.378;2023-05-07T14:13:22;24.20;99.90
7958;DHT22;4024;52.172;5.378;2023-05-07T14:15:48;24.20;99.90
7958;DHT22;4024;52.172;5.378;2023-05-07T14:18:15;24.20;99.90
7958;DHT22;4024;52.172;5.378;2023-05-07T14:20:41;24.20;99.90
7958;DHT22;4024;52.172;5.378;2023-05-07T14:23:08;24.10;99.90
7958;DHT22;4024;52.172;5.378;2023-05-07T14:25:34;24.00;99.90
7958;DHT22;4024;52.172;5.378;2023-05-07T14:28:01;24.00;99.90
7958;DHT22;4024;52.172;5.378;2023-05-07T14:30:26;24.00;99.90
7958;DHT22;4024;52.172;5.378;2023-05-07T14:32:52;23.80;99.90
7958;DHT22;4024;52.172;5.378;2023-05-07T14:35:18;23.90;99.90
7958;DHT22;4024;52.172;5.378;2023-05-07T14:37:44;23.80;99.90
7958;DHT22;4024;52.172;5.378;2023-05-07T14:40:10;23.80;99.90
7958;DHT22;4024;52.172;5.378;2023-05-07T14:42:36;23.80;99.90
7958;DHT22;4024;52.172;5.378;2023-05-07T14:45:02;23.80;99.90
7958;DHT22;4024;52.172;5.378;2023-05-07T14:47:28;23.80;99.90
7958;DHT22;4024;52.172;5.378;2023-05-07T14:49:54;23.70;99.90
7958;DHT22;4024;52.172;5.378;2023-05-07T14:52:20;23.70;99.90
7958;DHT22;4024;52.172;5.378;2023-05-07T14:54:45;23.70;99.90
7958;DHT22;4024;52.172;5.378;2023-05-07T14:57:13;23.70;99.90
7958;DHT22;4024;52.172;5.378;2023-05-07T14:59:40;23.70;99.90
7958;DHT22;4024;52.172;5.378;2023-05-07T15:02:06;23.60;99.90
7958;DHT22;4024;52.172;5.378;2023-05-07T15:04:36;23.60;99.90
7958;DHT22;4024;52.172;5.378;2023-05-07T15:07:03;23.60;99.90
7958;DHT22;4024;52.172;5.378;2023-05-07T15:09:29;23.50;99.90
7958;DHT22;4024;52.172;5.378;2023-05-07T15:11:56;23.40;99.90
7958;DHT22;4024;52.172;5.378;2023-05-07T15:14:21;23.40;99.90
7958;DHT22;4024;52.172;5.378;2023-05-07T15:16:48;23.40;99.90
7958;DHT22;4024;52.172;5.378;2023-05-07T15:19:14;23.30;99.90
7958;DHT22;4024;52.172;5.378;2023-05-07T15:21:42;23.30;99.90
7958;DHT22;4024;52.172;5.378;2023-05-07T15:24:08;23.20;99.90
7958;DHT22;4024;52.172;5.378;2023-05-07T15:26:34;23.20;99.90
7958;DHT22;4024;52.172;5.378;2023-05-07T15:28:59;23.10;99.90
7958;DHT22;4024;52.172;5.378;2023-05-07T15:31:25;23.10;99.90
7958;DHT22;4024;52.172;5.378;2023-05-07T15:33:51;22.90;99.90
7958;DHT22;4024;52.172;5.378;2023-05-07T15:36:20;22.90;99.90
7958;DHT22;4024;52.172;5.378;2023-05-07T15:38:47;22.70;99.90
7958;DHT22;4024;52.172;5.378;2023-05-07T15:41:13;22.60;99.90
7958;DHT22;4024;52.172;5.378;2023-05-07T15:43:48;22.40;99.90
7958;DHT22;4024;52.172;5.378;2023-05-07T15:46:22;22.20;99.90
7958;DHT22;4024;52.172;5.378;2023-05-07T15:48:52;22.10;99.90
7958;DHT22;4024;52.172;5.378;2023-05-07T15:51:18;21.90;99.90
7958;DHT22;4024;52.172;5.378;2023-05-07T15:53:45;21.70;99.90
7958;DHT22;4024;52.172;5.378;2023-05-07T15:56:11;21.60;99.90
7958;DHT22;4024;52.172;5.378;2023-05-07T15:58:37;21.40;99.90
7958;DHT22;4024;52.172;5.378;2023-05-07T16:01:04;21.20;99.90
7958;DHT22;4024;52.172;5.378;2023-05-07T16:03:30;21.10;99.90
7958;DHT22;4024;52.172;5.378;2023-05-07T16:05:59;21.00;99.90
7958;DHT22;4024;52.172;5.378;2023-05-07T16:08:25;20.80;99.90
7958;DHT22;4024;52.172;5.378;2023-05-07T16:10:51;20.60;99.90